»·PEaware :: AWE691 KSNA-KSAN

AWE691 :: KSNA-KSAN

FLIGHT INFORMATION

Flight Status: Arrived
Operator:
US Airways
More flights by this operator :: More flights under this callsign
Pilot: Thomas N. (7419)
Aircraft: BOEING 737-300
(B733)
More flights by this aircraft type
Origin: KSNA John Wayne-Orange Co
United States
Destination: KSAN San Diego Intl-Lindbergh
United States
More flights between these airports :: More routes between these airports
Route: +V25 PACIF V208 LAX118 CARDI MZB320 MZB
File this flight plan on PilotEdge
Remarks: CSTN19
Altitude:
(Current/Filed)
9,000ft
Speed:
(Current/Filed)
230kts
Departed: 02-May-16 03:49 PM
Arrived: 02-May-16 04:19 PM
Distance/Time
Traveled:
66nm/0:30
Distance/Time
To Go:
Arrived

Flight Plot

Page will automatically refresh every two minutes.


Map Options




Map Legend


Flown Route
Filed Route
Departure Airport
Arrival Airport
Navaid (VOR, NDB)
Fix

Horizontal Profiles

Position Reports

Time Latitude Longitude Heading Altitude Ground
Speed
02-May-16 15:32 33.682410 -117.860354 118 61ft 0kts
02-May-16 15:33 33.682410 -117.860354 118 61ft 0kts
02-May-16 15:34 33.682410 -117.860354 118 61ft 0kts
02-May-16 15:35 33.682410 -117.860354 118 61ft 0kts
02-May-16 15:36 33.682410 -117.860354 118 61ft 0kts
02-May-16 15:37 33.682410 -117.860354 118 61ft 0kts
02-May-16 15:38 33.682410 -117.860354 118 61ft 0kts
02-May-16 15:39 33.682671 -117.860532 256 61ft 0kts
02-May-16 15:40 33.682667 -117.860553 255 61ft 0kts
02-May-16 15:41 33.681979 -117.861510 207 61ft 14kts
02-May-16 15:42 33.680720 -117.863180 298 61ft 0kts
02-May-16 15:43 33.680720 -117.863180 298 61ft 0kts
02-May-16 15:44 33.680720 -117.863180 298 61ft 0kts
02-May-16 15:45 33.680832 -117.863433 298 61ft 7kts
02-May-16 15:46 33.681155 -117.865376 206 61ft 0kts
02-May-16 15:47 33.681155 -117.865376 206 61ft 0kts
02-May-16 15:48 33.675847 -117.868744 207 61ft 103kts
02-May-16 15:49 33.641926 -117.878371 185 1108ft 165kts
02-May-16 15:50 33.592297 -117.884610 188 2168ft 209kts
02-May-16 15:51 33.532432 -117.895935 187 3430ft 214kts
02-May-16 15:52 33.472207 -117.903062 186 4635ft 220kts
02-May-16 15:53 33.415094 -117.896678 141 5796ft 221kts
02-May-16 15:54 33.371101 -117.845144 136 7001ft 220kts
02-May-16 15:55 33.329209 -117.797194 136 8138ft 217kts
02-May-16 15:56 33.289854 -117.752519 132 9001ft 224kts
02-May-16 15:57 33.274052 -117.677834 96 9015ft 247kts
02-May-16 15:58 33.262679 -117.595201 99 9009ft 254kts
02-May-16 15:59 33.223663 -117.528327 136 9012ft 256kts
02-May-16 16:00 33.173929 -117.468649 133 8650ft 247kts
02-May-16 16:01 33.128902 -117.414793 149 7626ft 222kts
02-May-16 16:02 33.076297 -117.388357 155 7005ft 201kts
02-May-16 16:03 33.029572 -117.362475 155 7003ft 175kts
02-May-16 16:04 32.986996 -117.338840 155 7007ft 165kts
02-May-16 16:05 32.946218 -117.316228 155 7010ft 160kts
02-May-16 16:06 32.906490 -117.294220 155 7013ft 158kts
02-May-16 16:07 32.865971 -117.271808 155 7026ft 188kts
02-May-16 16:08 32.819784 -117.246121 151 7019ft 206kts
02-May-16 16:09 32.798918 -117.196921 101 6904ft 215kts
02-May-16 16:10 32.789003 -117.143077 101 5969ft 203kts
02-May-16 16:11 32.780466 -117.096581 101 5062ft 179kts
02-May-16 16:12 32.770398 -117.058214 127 4416ft 152kts
02-May-16 16:13 32.739596 -117.043166 205 2686ft 142kts
02-May-16 16:14 32.725854 -117.076904 257 1617ft 146kts
02-May-16 16:15 32.718180 -117.118071 271 1328ft 138kts
02-May-16 16:16 32.725478 -117.156325 286 545ft 127kts
02-May-16 16:17 32.732891 -117.186932 286 23ft 101kts
02-May-16 16:18 32.734019 -117.194956 179 22ft 0kts
02-May-16 16:19 32.733862 -117.194898 146 22ft 6kts
02-May-16 16:20 32.732592 -117.192896 194 22ft 12kts
02-May-16 16:21 32.732345 -117.192976 195 22ft 0kts
02-May-16 16:22 32.732345 -117.192976 195 22ft 0kts

Navigation Log

Ident Type
Flight plan parsing failed, navigation log unavailable